createdAt,value
2022-09-27T00:01:44.701Z,17.58
2022-09-27T00:04:12.067Z,17.58
2022-09-27T00:06:40.867Z,17.61
2022-09-27T00:09:08.535Z,17.66
2022-09-27T00:11:34.854Z,17.69
2022-09-27T00:14:01.104Z,17.71
2022-09-27T00:16:27.418Z,17.69
2022-09-27T00:18:53.870Z,17.65
2022-09-27T00:21:21.212Z,17.62
2022-09-27T00:23:47.557Z,17.60
2022-09-27T00:26:13.838Z,17.56
2022-09-27T00:28:39.998Z,17.55
2022-09-27T00:31:06.745Z,17.54
2022-09-27T00:33:33.143Z,17.51
2022-09-27T00:35:59.469Z,17.49
2022-09-27T00:38:25.657Z,17.49
2022-09-27T00:40:51.894Z,17.47
2022-09-27T00:43:18.497Z,17.46
2022-09-27T00:45:44.750Z,17.44
2022-09-27T00:48:10.951Z,17.42
2022-09-27T00:50:37.265Z,17.42
2022-09-27T00:53:03.439Z,17.41
2022-09-27T00:55:29.725Z,17.40
2022-09-27T00:57:55.916Z,17.37
2022-09-27T01:00:22.173Z,17.36
2022-09-27T01:02:48.440Z,17.34
2022-09-27T01:05:14.761Z,17.33
2022-09-27T01:07:40.975Z,17.32
2022-09-27T01:10:07.528Z,17.31
2022-09-27T01:12:33.792Z,17.30
2022-09-27T01:15:00.183Z,17.27
2022-09-27T01:17:27.089Z,17.26
2022-09-27T01:19:53.737Z,17.25
2022-09-27T01:22:19.977Z,17.24
2022-09-27T01:24:46.194Z,17.22
2022-09-27T01:27:13.164Z,17.21
2022-09-27T01:29:39.364Z,17.20
2022-09-27T01:32:05.559Z,17.19
2022-09-27T01:34:31.792Z,17.17
2022-09-27T01:36:58.000Z,17.06
2022-09-27T01:39:24.291Z,17.15
2022-09-27T01:41:50.494Z,17.13
2022-09-27T01:44:17.182Z,17.12
2022-09-27T01:46:43.501Z,17.11
2022-09-27T01:49:10.154Z,17.10
2022-09-27T01:51:36.440Z,17.10
2022-09-27T01:54:02.685Z,17.09
2022-09-27T01:56:28.893Z,17.09
2022-09-27T01:58:56.247Z,17.08
2022-09-27T02:01:22.717Z,17.08
2022-09-27T02:03:49.546Z,17.06
2022-09-27T02:06:15.812Z,17.06
2022-09-27T02:08:42.010Z,17.04
2022-09-27T02:11:08.251Z,17.04
2022-09-27T02:13:34.603Z,17.02
2022-09-27T02:16:00.957Z,17.01
2022-09-27T02:18:27.272Z,17.00
2022-09-27T02:20:53.559Z,16.99
2022-09-27T02:23:20.904Z,16.98
2022-09-27T02:25:47.124Z,16.97
2022-09-27T02:28:13.324Z,16.96
2022-09-27T02:30:39.570Z,16.97
2022-09-27T02:33:05.829Z,16.96
2022-09-27T02:35:32.026Z,16.93
2022-09-27T02:37:58.229Z,16.93
2022-09-27T02:40:24.957Z,16.90
2022-09-27T02:42:51.282Z,16.88
2022-09-27T02:45:17.488Z,16.86
2022-09-27T02:47:44.174Z,16.86
2022-09-27T02:50:10.425Z,16.86
2022-09-27T02:52:36.733Z,16.86
2022-09-27T02:55:03.283Z,16.85
2022-09-27T02:57:29.537Z,16.85
2022-09-27T02:59:56.030Z,16.85
2022-09-27T03:02:22.964Z,16.84
2022-09-27T03:04:49.500Z,16.84
2022-09-27T03:07:15.743Z,16.83
2022-09-27T03:09:42.299Z,16.83
2022-09-27T03:12:08.543Z,16.82
2022-09-27T03:14:34.832Z,16.81
2022-09-27T03:17:01.186Z,16.81
2022-09-27T03:19:27.425Z,16.81
2022-09-27T03:21:53.808Z,16.80
2022-09-27T03:24:20.239Z,16.79
2022-09-27T03:26:46.489Z,16.79
2022-09-27T03:29:12.676Z,16.79
2022-09-27T03:31:38.946Z,16.79
2022-09-27T03:34:05.245Z,16.78
2022-09-27T03:36:31.531Z,16.77
2022-09-27T03:38:58.020Z,16.75
2022-09-27T03:41:24.703Z,16.74
2022-09-27T03:43:50.934Z,16.73
2022-09-27T03:46:17.351Z,16.72
2022-09-27T03:48:43.708Z,16.72
2022-09-27T03:51:10.145Z,16.73
2022-09-27T03:53:36.350Z,16.70
2022-09-27T03:56:02.731Z,16.71
2022-09-27T03:58:28.974Z,16.70
2022-09-27T04:00:55.252Z,16.69
2022-09-27T04:03:21.912Z,16.67
2022-09-27T04:05:48.171Z,16.68
2022-09-27T04:08:14.513Z,16.67
2022-09-27T04:10:40.698Z,16.66
2022-09-27T04:13:07.067Z,16.66
2022-09-27T04:15:33.365Z,16.66
2022-09-27T04:17:59.570Z,16.65
2022-09-27T04:20:26.056Z,16.65
2022-09-27T04:22:52.277Z,16.64
2022-09-27T04:25:18.573Z,16.65
2022-09-27T04:27:44.797Z,16.65
2022-09-27T04:30:11.044Z,16.65
2022-09-27T04:32:37.491Z,16.64
2022-09-27T04:35:03.851Z,16.64
2022-09-27T04:37:30.041Z,16.63
2022-09-27T04:39:56.321Z,16.64
2022-09-27T04:42:22.647Z,16.64
2022-09-27T04:44:49.029Z,16.64
2022-09-27T04:47:15.439Z,16.63
2022-09-27T04:49:41.697Z,16.64
2022-09-27T04:52:07.896Z,16.63
2022-09-27T04:54:34.271Z,16.63
2022-09-27T04:57:00.543Z,16.63
2022-09-27T04:59:26.752Z,16.62
2022-09-27T05:01:53.139Z,16.48
2022-09-27T05:04:19.415Z,16.59
2022-09-27T05:06:45.630Z,16.60
2022-09-27T05:09:12.084Z,16.59
2022-09-27T05:11:38.315Z,16.59
2022-09-27T05:14:04.544Z,16.58
2022-09-27T05:16:33.387Z,16.59
2022-09-27T05:19:00.610Z,16.57
2022-09-27T05:21:26.795Z,16.56
2022-09-27T05:23:53.105Z,16.56
2022-09-27T05:26:19.431Z,16.55
2022-09-27T05:28:46.042Z,16.56
2022-09-27T05:31:12.372Z,16.56
2022-09-27T05:33:38.640Z,16.56
2022-09-27T05:36:04.837Z,16.55
2022-09-27T05:38:31.067Z,16.55
2022-09-27T05:40:57.356Z,16.54
2022-09-27T05:43:23.913Z,16.55
2022-09-27T05:45:50.139Z,16.55
2022-09-27T05:48:16.550Z,16.54
2022-09-27T05:50:42.898Z,16.54
2022-09-27T05:53:09.133Z,16.54
2022-09-27T05:55:35.482Z,16.55
2022-09-27T05:58:02.281Z,16.53
2022-09-27T06:00:28.604Z,16.53
2022-09-27T06:02:55.100Z,16.52
2022-09-27T06:05:21.541Z,16.52
2022-09-27T06:07:47.833Z,16.52
2022-09-27T06:10:14.327Z,16.52
2022-09-27T06:12:40.535Z,16.52
2022-09-27T06:15:06.752Z,16.52
2022-09-27T06:17:33.113Z,16.51
2022-09-27T06:19:59.398Z,16.52
2022-09-27T06:22:25.781Z,16.53
2022-09-27T06:24:52.177Z,16.56
2022-09-27T06:27:18.467Z,16.64
2022-09-27T06:29:44.909Z,16.77
2022-09-27T06:32:11.082Z,16.93
2022-09-27T06:34:37.291Z,17.08
2022-09-27T06:37:03.944Z,17.23
2022-09-27T06:39:30.176Z,17.38
2022-09-27T06:41:56.451Z,17.48
2022-09-27T06:44:22.830Z,17.55
2022-09-27T06:46:49.119Z,17.61
2022-09-27T06:49:15.436Z,17.67
2022-09-27T06:51:41.803Z,17.73
2022-09-27T06:54:08.080Z,17.80
2022-09-27T06:56:34.472Z,17.86
2022-09-27T06:59:02.047Z,17.91
2022-09-27T07:01:28.377Z,17.94
2022-09-27T07:03:54.730Z,17.97
2022-09-27T07:06:20.953Z,18.01
2022-09-27T07:08:47.168Z,18.05
2022-09-27T07:11:14.119Z,18.09
2022-09-27T07:13:40.546Z,18.13
2022-09-27T07:16:06.961Z,18.19
2022-09-27T07:18:33.345Z,18.26
2022-09-27T07:21:00.460Z,18.28
2022-09-27T07:23:26.983Z,18.33
2022-09-27T07:25:53.248Z,18.35
2022-09-27T07:28:22.081Z,18.36
2022-09-27T07:30:48.771Z,18.35
2022-09-27T07:33:15.179Z,18.36
2022-09-27T07:35:41.402Z,18.38
2022-09-27T07:38:09.796Z,18.40
2022-09-27T07:40:36.161Z,18.41
2022-09-27T07:43:03.334Z,18.41
2022-09-27T07:45:30.338Z,18.44
2022-09-27T07:47:56.829Z,18.46
2022-09-27T07:50:23.090Z,18.49
2022-09-27T07:52:49.650Z,18.54
2022-09-27T07:55:16.193Z,18.58
2022-09-27T07:57:42.771Z,18.58
2022-09-27T08:00:09.222Z,18.64
2022-09-27T08:02:35.586Z,18.72
2022-09-27T08:05:01.955Z,18.85
2022-09-27T08:07:28.334Z,18.88
2022-09-27T08:09:54.647Z,18.81
2022-09-27T08:12:20.909Z,18.75
2022-09-27T08:14:48.359Z,18.74
2022-09-27T08:17:14.966Z,18.73
2022-09-27T08:19:41.283Z,18.77
2022-09-27T08:22:07.687Z,18.84
2022-09-27T08:24:34.369Z,19.07
2022-09-27T08:29:44.706Z,19.09
2022-09-27T08:32:11.508Z,19.11
2022-09-27T08:34:37.804Z,19.06
2022-09-27T08:37:04.065Z,19.09
2022-09-27T08:39:31.009Z,19.12
2022-09-27T08:41:59.028Z,19.11
2022-09-27T08:44:25.307Z,19.10
2022-09-27T08:46:51.878Z,19.11
2022-09-27T08:49:18.117Z,19.13
2022-09-27T08:51:44.528Z,19.41
2022-09-27T08:54:10.751Z,19.86
2022-09-27T08:56:37.069Z,20.73
2022-09-27T08:59:04.014Z,19.96
2022-09-27T09:01:30.363Z,20.07
2022-09-27T09:03:57.026Z,20.23
2022-09-27T09:06:23.301Z,20.03
2022-09-27T09:08:51.170Z,19.74
2022-09-27T09:11:17.568Z,19.62
2022-09-27T09:13:43.793Z,19.56
2022-09-27T09:16:10.373Z,19.56
2022-09-27T09:18:37.098Z,19.63
2022-09-27T09:21:03.331Z,19.71
2022-09-27T09:23:30.548Z,19.79
2022-09-27T09:25:56.909Z,19.86
2022-09-27T09:28:23.731Z,19.82
2022-09-27T09:30:53.209Z,19.83
2022-09-27T09:33:21.852Z,19.84
2022-09-27T09:36:18.221Z,19.88
2022-09-27T09:38:45.440Z,19.89
2022-09-27T09:41:12.020Z,20.01
2022-09-27T09:43:38.691Z,20.03
2022-09-27T09:46:10.467Z,20.04
2022-09-27T09:48:36.894Z,20.03
2022-09-27T09:51:03.624Z,20.06
2022-09-27T09:53:30.035Z,20.14
2022-09-27T09:55:56.393Z,20.17
2022-09-27T09:58:22.727Z,20.25
2022-09-27T10:00:52.233Z,20.27
2022-09-27T10:03:19.075Z,20.36
2022-09-27T10:05:45.521Z,20.29
2022-09-27T10:08:11.897Z,20.28
2022-09-27T10:10:38.253Z,20.35
2022-09-27T10:13:04.548Z,20.34
2022-09-27T10:18:26.039Z,20.41
2022-09-27T10:20:52.708Z,20.40
2022-09-27T10:23:19.589Z,20.38
2022-09-27T10:25:45.919Z,20.39
2022-09-27T10:28:12.239Z,20.39
2022-09-27T10:30:38.614Z,20.36
2022-09-27T10:33:04.881Z,20.34
2022-09-27T10:35:31.542Z,20.32
2022-09-27T10:37:57.877Z,20.30
2022-09-27T10:40:24.279Z,20.18
2022-09-27T10:42:52.499Z,20.31
2022-09-27T10:45:18.777Z,20.29
2022-09-27T10:47:45.004Z,20.27
2022-09-27T10:50:15.857Z,20.26
2022-09-27T10:52:49.272Z,20.28
2022-09-27T10:55:15.805Z,20.28
2022-09-27T10:57:45.167Z,20.31
2022-09-27T11:00:11.556Z,20.31
2022-09-27T11:02:37.803Z,20.31
2022-09-27T11:05:04.168Z,20.32
2022-09-27T11:07:30.638Z,20.32
2022-09-27T11:09:56.987Z,20.34
2022-09-27T11:12:23.221Z,20.33
2022-09-27T11:14:49.454Z,20.35
2022-09-27T11:17:15.696Z,20.35
2022-09-27T11:19:41.917Z,20.41
2022-09-27T11:22:08.470Z,20.45
2022-09-27T11:24:34.737Z,20.45
2022-09-27T11:27:01.082Z,20.41
2022-09-27T11:29:27.546Z,20.38
2022-09-27T11:31:53.954Z,20.36
2022-09-27T11:34:20.316Z,20.36
2022-09-27T11:36:46.819Z,20.37
2022-09-27T11:39:13.860Z,20.43
2022-09-27T11:41:40.482Z,20.52
2022-09-27T11:44:06.754Z,20.63
2022-09-27T11:46:41.119Z,20.67
2022-09-27T11:49:08.061Z,20.65
2022-09-27T11:51:34.256Z,20.67
2022-09-27T11:54:00.582Z,20.68
2022-09-27T11:56:26.933Z,20.77
2022-09-27T11:58:53.334Z,20.80
2022-09-27T12:01:19.641Z,20.83
2022-09-27T12:03:45.906Z,20.83
2022-09-27T12:06:12.167Z,20.83
2022-09-27T12:08:38.446Z,20.86
2022-09-27T12:11:04.653Z,20.91
2022-09-27T12:13:31.234Z,20.92
2022-09-27T12:15:57.816Z,20.87
2022-09-27T12:18:24.181Z,20.87
2022-09-27T12:20:50.649Z,20.87
2022-09-27T12:23:17.157Z,20.87
2022-09-27T12:25:44.006Z,20.86
2022-09-27T12:28:10.220Z,20.87
2022-09-27T12:30:37.485Z,20.89
2022-09-27T12:33:03.706Z,20.89
2022-09-27T12:35:30.007Z,20.88
2022-09-27T12:37:56.240Z,20.91
2022-09-27T12:40:22.572Z,20.92
2022-09-27T12:42:49.249Z,20.90
2022-09-27T12:45:15.506Z,20.79
2022-09-27T12:47:42.152Z,20.91
2022-09-27T12:50:09.927Z,20.90
2022-09-27T12:52:36.253Z,20.90
2022-09-27T12:55:03.064Z,20.88
2022-09-27T12:57:30.758Z,20.88
2022-09-27T12:59:57.055Z,20.85
2022-09-27T13:02:23.347Z,20.75
2022-09-27T13:04:49.628Z,20.86
2022-09-27T13:07:15.945Z,20.86
2022-09-27T13:09:42.498Z,20.84
2022-09-27T13:12:09.976Z,20.83
2022-09-27T13:14:36.235Z,20.87
2022-09-27T13:17:03.098Z,20.90
2022-09-27T13:19:29.398Z,20.93
2022-09-27T13:21:56.393Z,20.90
2022-09-27T13:24:23.140Z,20.87
2022-09-27T13:26:49.405Z,20.88
2022-09-27T13:29:15.731Z,20.88
2022-09-27T13:31:42.447Z,20.87
2022-09-27T13:34:08.776Z,20.87
2022-09-27T13:36:35.203Z,20.85
2022-09-27T13:39:01.581Z,20.84
2022-09-27T13:41:27.932Z,20.89
2022-09-27T13:43:56.555Z,20.88
2022-09-27T13:46:23.052Z,20.86
2022-09-27T13:48:49.454Z,20.87
2022-09-27T13:51:15.849Z,20.86
2022-09-27T13:53:42.194Z,20.85
2022-09-27T13:56:08.513Z,20.81
2022-09-27T13:58:34.762Z,20.78
2022-09-27T14:01:01.170Z,20.76
2022-09-27T14:03:27.444Z,20.73
2022-09-27T14:05:53.740Z,20.71
2022-09-27T14:08:20.002Z,20.66
2022-09-27T14:10:46.430Z,20.63
2022-09-27T14:13:12.696Z,20.61
2022-09-27T14:15:39.437Z,20.59
2022-09-27T14:18:05.734Z,20.57
2022-09-27T14:20:32.164Z,20.56
2022-09-27T14:23:01.324Z,20.54
2022-09-27T14:25:27.543Z,20.52
2022-09-27T14:27:53.779Z,20.52
2022-09-27T14:30:20.210Z,20.51
2022-09-27T14:32:46.412Z,20.50
2022-09-27T14:35:12.717Z,20.48
2022-09-27T14:37:40.304Z,20.46
2022-09-27T14:40:07.105Z,20.45
2022-09-27T14:42:33.371Z,20.44
2022-09-27T14:44:59.609Z,20.44
2022-09-27T14:47:26.260Z,20.43
2022-09-27T14:49:53.547Z,20.41
2022-09-27T14:52:20.276Z,20.41
2022-09-27T14:54:46.914Z,20.42
2022-09-27T14:57:13.446Z,20.42
2022-09-27T14:59:39.705Z,20.42
2022-09-27T15:02:05.948Z,20.40
2022-09-27T15:04:32.542Z,20.40
2022-09-27T15:07:00.022Z,20.40
2022-09-27T15:09:29.686Z,20.39
2022-09-27T15:11:58.528Z,20.40
2022-09-27T15:14:24.828Z,20.40
2022-09-27T15:16:51.112Z,20.39
2022-09-27T15:19:17.584Z,20.39
2022-09-27T15:21:44.010Z,20.39
2022-09-27T15:24:10.286Z,20.39
2022-09-27T15:26:36.554Z,20.39
2022-09-27T15:29:02.794Z,20.40
2022-09-27T15:31:29.167Z,20.39
2022-09-27T15:33:55.445Z,20.39
2022-09-27T15:36:21.775Z,20.38
2022-09-27T15:38:48.450Z,20.37
2022-09-27T15:41:14.845Z,20.36
2022-09-27T15:43:41.148Z,20.36
2022-09-27T15:46:08.018Z,20.34
2022-09-27T15:48:34.309Z,20.35
2022-09-27T15:51:00.593Z,20.33
2022-09-27T15:53:27.125Z,20.31
2022-09-27T15:55:53.386Z,20.29
2022-09-27T15:58:19.592Z,20.29
2022-09-27T16:00:45.850Z,20.29
2022-09-27T16:03:12.280Z,20.28
2022-09-27T16:05:38.523Z,20.28
2022-09-27T16:08:04.748Z,20.28
2022-09-27T16:10:30.970Z,20.27
2022-09-27T16:12:57.543Z,20.25
2022-09-27T16:15:24.069Z,20.24
2022-09-27T16:17:50.329Z,20.24
2022-09-27T16:20:16.600Z,20.23
2022-09-27T16:22:42.861Z,20.21
2022-09-27T16:25:09.115Z,20.19
2022-09-27T16:27:35.409Z,20.17
2022-09-27T16:30:02.353Z,20.17
2022-09-27T16:32:28.643Z,20.13
2022-09-27T16:34:54.990Z,20.12
2022-09-27T16:37:21.299Z,20.11
2022-09-27T16:39:47.856Z,20.09
2022-09-27T16:42:14.130Z,20.08
2022-09-27T16:44:40.359Z,20.07
2022-09-27T16:47:06.724Z,20.05
2022-09-27T16:49:33.283Z,20.03
2022-09-27T16:51:59.497Z,20.03
2022-09-27T16:54:25.729Z,20.01
2022-09-27T16:56:55.177Z,19.99
2022-09-27T16:59:21.616Z,19.98
2022-09-27T17:01:47.897Z,19.97
2022-09-27T17:04:14.280Z,19.96
2022-09-27T17:06:40.594Z,19.94
2022-09-27T17:09:07.043Z,19.93
2022-09-27T17:11:34.009Z,19.91
2022-09-27T17:14:00.398Z,19.91
2022-09-27T17:16:26.726Z,19.90
2022-09-27T17:18:53.181Z,19.90
2022-09-27T17:21:19.836Z,19.88
2022-09-27T17:23:46.652Z,19.88
2022-09-27T17:26:13.222Z,19.86
2022-09-27T17:28:39.508Z,19.86
2022-09-27T17:31:06.326Z,19.84
2022-09-27T17:33:32.655Z,19.81
2022-09-27T17:35:58.894Z,19.80
2022-09-27T17:38:25.070Z,19.79
2022-09-27T17:40:51.385Z,19.78
2022-09-27T17:43:18.083Z,19.76
2022-09-27T17:45:44.313Z,19.75
2022-09-27T17:48:13.480Z,19.75
2022-09-27T17:50:40.134Z,19.73
2022-09-27T17:53:06.419Z,19.72
2022-09-27T17:55:32.695Z,19.70
2022-09-27T17:57:58.936Z,19.68
2022-09-27T18:00:25.136Z,19.68
2022-09-27T18:02:51.421Z,19.66
2022-09-27T18:05:17.687Z,19.67
2022-09-27T18:07:43.897Z,19.64
2022-09-27T18:10:10.247Z,19.63
2022-09-27T18:12:36.458Z,19.62
2022-09-27T18:15:02.660Z,19.53
2022-09-27T18:17:30.931Z,19.61
2022-09-27T18:19:57.150Z,19.60
2022-09-27T18:22:23.354Z,19.59
2022-09-27T18:24:49.749Z,19.58
2022-09-27T18:27:16.058Z,19.57
2022-09-27T18:29:42.281Z,19.57
2022-09-27T18:32:08.509Z,19.58
2022-09-27T18:34:34.737Z,19.57
2022-09-27T18:37:01.442Z,19.55
2022-09-27T18:39:27.690Z,19.55
2022-09-27T18:41:54.310Z,19.54
2022-09-27T18:44:20.573Z,19.54
2022-09-27T18:46:46.858Z,19.53
2022-09-27T18:49:13.179Z,19.51
2022-09-27T18:51:39.439Z,19.52
2022-09-27T18:54:05.647Z,19.51
2022-09-27T18:56:32.278Z,19.49
2022-09-27T18:58:58.474Z,19.48
2022-09-27T19:01:25.566Z,19.47
2022-09-27T19:03:51.931Z,19.47
2022-09-27T19:06:18.228Z,19.47
2022-09-27T19:08:44.843Z,19.45
2022-09-27T19:11:11.116Z,19.44
2022-09-27T19:13:46.124Z,19.43
2022-09-27T19:16:16.763Z,19.41
2022-09-27T19:18:43.406Z,19.40
2022-09-27T19:21:10.371Z,19.39
2022-09-27T19:23:36.691Z,19.39
2022-09-27T19:26:02.956Z,19.38
2022-09-27T19:28:29.776Z,19.36
2022-09-27T19:30:56.412Z,19.35
2022-09-27T19:33:22.645Z,19.35
2022-09-27T19:35:48.852Z,19.35
2022-09-27T19:38:15.062Z,19.33
2022-09-27T19:40:41.469Z,19.33
2022-09-27T19:43:07.690Z,19.33
2022-09-27T19:45:33.939Z,19.32
2022-09-27T19:48:00.358Z,19.31
2022-09-27T19:50:26.575Z,19.31
2022-09-27T19:52:52.972Z,19.30
2022-09-27T19:55:19.424Z,19.30
2022-09-27T19:57:45.625Z,19.21
2022-09-27T20:00:11.852Z,19.30
2022-09-27T20:02:38.514Z,19.31
2022-09-27T20:05:04.728Z,19.32
2022-09-27T20:07:30.930Z,19.33
2022-09-27T20:09:57.306Z,19.33
2022-09-27T20:12:23.642Z,19.33
2022-09-27T20:14:49.914Z,19.33
2022-09-27T20:17:16.274Z,19.34
2022-09-27T20:19:42.567Z,19.36
2022-09-27T20:22:08.883Z,19.38
2022-09-27T20:24:35.362Z,19.39
2022-09-27T20:27:01.653Z,19.41
2022-09-27T20:29:28.278Z,19.41
2022-09-27T20:32:22.501Z,19.40
2022-09-27T20:34:41.376Z,19.41
2022-09-27T20:37:10.727Z,19.43
2022-09-27T20:39:36.966Z,19.42
2022-09-27T20:42:03.188Z,19.39
2022-09-27T20:44:30.020Z,19.36
2022-09-27T20:46:56.299Z,19.35
2022-09-27T20:49:22.607Z,19.34
2022-09-27T20:51:50.014Z,19.33
2022-09-27T20:54:16.204Z,19.32
2022-09-27T20:56:43.065Z,19.30
2022-09-27T20:59:12.798Z,19.29
2022-09-27T21:01:41.065Z,19.26
2022-09-27T21:04:07.301Z,19.26
2022-09-27T21:06:33.496Z,19.27
2022-09-27T21:08:59.679Z,19.25
2022-09-27T21:11:25.941Z,19.24
2022-09-27T21:13:52.321Z,19.23
2022-09-27T21:16:20.072Z,19.23
2022-09-27T21:18:46.970Z,19.22
2022-09-27T21:21:13.999Z,19.18
2022-09-27T21:23:44.327Z,19.11
2022-09-27T21:26:11.444Z,19.01
2022-09-27T21:28:37.671Z,18.93
2022-09-27T21:31:03.917Z,18.83
2022-09-27T21:33:30.445Z,18.77
2022-09-27T21:35:56.651Z,18.70
2022-09-27T21:38:22.853Z,18.65
2022-09-27T21:40:49.100Z,18.59
2022-09-27T21:43:15.373Z,18.51
2022-09-27T21:45:41.573Z,18.45
2022-09-27T21:48:07.779Z,18.38
2022-09-27T21:50:33.998Z,18.33
2022-09-27T21:53:00.771Z,18.27
2022-09-27T21:55:26.954Z,18.22
2022-09-27T21:57:53.309Z,18.16
2022-09-27T22:00:19.511Z,18.11
2022-09-27T22:02:45.771Z,18.07
2022-09-27T22:05:12.012Z,18.02
2022-09-27T22:07:41.742Z,17.99
2022-09-27T22:10:08.330Z,17.94
2022-09-27T22:12:34.537Z,17.91
2022-09-27T22:15:00.738Z,17.87
2022-09-27T22:17:27.047Z,17.84
2022-09-27T22:19:53.352Z,17.80
2022-09-27T22:22:19.565Z,17.75
2022-09-27T22:24:45.758Z,17.72
2022-09-27T22:27:11.971Z,17.68
2022-09-27T22:29:38.306Z,17.65
2022-09-27T22:32:04.587Z,17.63
2022-09-27T22:34:30.810Z,17.61
2022-09-27T22:36:57.048Z,17.58
2022-09-27T22:39:24.014Z,17.55
2022-09-27T22:41:50.211Z,17.52
2022-09-27T22:44:16.437Z,17.50
2022-09-27T22:46:44.310Z,17.48
2022-09-27T22:49:11.121Z,17.46
2022-09-27T22:51:37.311Z,17.42
2022-09-27T22:54:03.645Z,17.41
2022-09-27T22:56:29.953Z,17.38
2022-09-27T22:58:56.152Z,17.33
2022-09-27T23:01:22.452Z,17.30
2022-09-27T23:03:48.766Z,17.28
2022-09-27T23:06:15.069Z,17.24
2022-09-27T23:08:41.394Z,17.21
2022-09-27T23:11:07.579Z,17.18
2022-09-27T23:13:33.820Z,17.16
2022-09-27T23:16:00.100Z,17.15
2022-09-27T23:18:26.648Z,17.12
2022-09-27T23:20:52.879Z,17.10
2022-09-27T23:23:19.360Z,17.08
2022-09-27T23:25:45.610Z,17.05
2022-09-27T23:28:11.949Z,17.01
2022-09-27T23:30:38.161Z,16.99
2022-09-27T23:33:04.383Z,16.98
2022-09-27T23:35:30.569Z,16.95
2022-09-27T23:37:56.840Z,16.91
2022-09-27T23:40:23.484Z,16.88
2022-09-27T23:42:49.755Z,16.85
2022-09-27T23:45:15.973Z,16.82
2022-09-27T23:47:42.663Z,16.79
2022-09-27T23:50:09.245Z,16.77
2022-09-27T23:52:35.733Z,16.74
2022-09-27T23:55:01.988Z,16.73
2022-09-27T23:59:56.920Z,16.70
